Time;durP1;ratioP1;P1;durP2;ratioP2;P2;SDS_P1;SDS_P2;PMS_P1;PMS_P2;Temp;Humidity;BMP_temperature;BMP_pressure;BME280_temperature;BME280_humidity;BME280_pressure;Samples;Min_cycle;Max_cycle;Signal;HPM_P1;HPM_P2
2022/10/31 00:01:54;;;;;;;57.57;32.77;;;12.70;99.90;;;;;;4929128;29;20186;-47
2022/10/31 00:04:20;;;;;;;65.33;33.37;;;12.80;99.90;;;;;;4916018;29;20531;-47
2022/10/31 00:06:45;;;;;;;69.93;32.90;;;12.80;99.90;;;;;;4929341;29;20194;-53
2022/10/31 00:09:11;;;;;;;66.50;31.10;;;12.90;99.90;;;;;;4932881;29;20194;-53
2022/10/31 00:11:37;;;;;;;53.80;31.90;;;12.90;99.90;;;;;;4929107;29;20672;-52
2022/10/31 00:14:03;;;;;;;67.70;31.90;;;13.00;99.90;;;;;;4926396;29;20182;-53
2022/10/31 00:16:29;;;;;;;59.73;30.47;;;13.00;99.90;;;;;;4925340;29;20642;-52
2022/10/31 00:18:58;;;;;;;62.40;31.70;;;13.00;99.90;;;;;;4930586;29;20436;-52
2022/10/31 00:21:24;;;;;;;50.13;28.40;;;12.90;99.90;;;;;;4930850;29;20446;-52
2022/10/31 00:23:50;;;;;;;51.23;30.10;;;12.90;99.90;;;;;;4930622;29;20437;-52
2022/10/31 00:26:15;;;;;;;55.70;31.37;;;12.80;99.90;;;;;;4933354;29;20948;-52
2022/10/31 00:28:42;;;;;;;60.23;31.60;;;12.90;99.90;;;;;;4931343;29;20198;-49
2022/10/31 00:31:09;;;;;;;59.57;30.47;;;12.90;99.90;;;;;;4931196;29;20480;-52
2022/10/31 00:33:37;;;;;;;65.90;33.73;;;12.90;99.90;;;;;;4932633;29;20532;-52
2022/10/31 00:36:03;;;;;;;60.77;31.07;;;12.90;99.90;;;;;;4933741;29;20512;-52
2022/10/31 00:38:29;;;;;;;58.87;31.57;;;12.90;99.90;;;;;;4932237;29;20450;-52
2022/10/31 00:40:55;;;;;;;66.97;30.97;;;12.80;99.90;;;;;;4930453;29;20430;-52
2022/10/31 00:43:21;;;;;;;53.43;30.80;;;12.80;99.90;;;;;;4932349;29;20584;-52
2022/10/31 00:45:46;;;;;;;62.83;34.33;;;12.80;99.90;;;;;;4932540;29;20182;-53
2022/10/31 00:48:12;;;;;;;56.73;32.07;;;12.80;99.90;;;;;;4930617;29;20246;-48
2022/10/31 00:50:38;;;;;;;54.17;28.57;;;12.80;99.90;;;;;;4932488;29;20665;-52
2022/10/31 00:53:04;;;;;;;58.40;30.50;;;12.70;99.90;;;;;;4932208;29;20222;-53
2022/10/31 00:55:30;;;;;;;55.97;32.77;;;12.60;99.90;;;;;;4934234;29;20782;-52
2022/10/31 00:57:55;;;;;;;59.20;30.70;;;12.70;99.90;;;;;;4933398;29;20239;-52
2022/10/31 01:00:21;;;;;;;54.40;29.83;;;12.70;99.90;;;;;;4931771;29;20609;-52
2022/10/31 01:02:47;;;;;;;60.53;32.63;;;12.70;99.90;;;;;;4926163;29;20196;-52
2022/10/31 01:05:13;;;;;;;63.83;33.70;;;12.60;99.90;;;;;;4933506;29;20513;-52
2022/10/31 01:07:40;;;;;;;66.20;32.10;;;12.70;99.90;;;;;;4917171;29;20292;-52
2022/10/31 01:10:06;;;;;;;65.30;34.70;;;12.70;99.90;;;;;;4914902;29;20222;-52
2022/10/31 01:12:39;;;;;;;60.67;33.13;;;12.70;99.90;;;;;;4925449;29;20996;-52
2022/10/31 01:15:06;;;;;;;70.07;37.40;;;12.70;99.90;;;;;;4932177;29;20445;-52
2022/10/31 01:17:31;;;;;;;72.57;36.10;;;12.70;99.90;;;;;;4931277;29;20437;-52
2022/10/31 01:19:57;;;;;;;64.53;35.07;;;12.70;99.90;;;;;;4932859;29;20442;-52
2022/10/31 01:22:23;;;;;;;82.57;37.30;;;12.80;99.90;;;;;;4928345;29;20282;-52
2022/10/31 01:24:48;;;;;;;63.33;34.57;;;12.80;99.90;;;;;;4931887;29;20203;-52
2022/10/31 01:27:14;;;;;;;68.83;34.33;;;12.70;99.90;;;;;;4932814;29;20236;-52
2022/10/31 01:29:39;;;;;;;80.23;37.13;;;12.80;99.90;;;;;;4931754;29;20191;-52
2022/10/31 01:32:05;;;;;;;63.60;35.67;;;12.80;99.90;;;;;;4928260;29;20269;-51
2022/10/31 01:34:31;;;;;;;65.47;36.80;;;12.90;99.90;;;;;;4937007;29;20186;-52
2022/10/31 01:36:56;;;;;;;73.47;37.37;;;13.00;99.90;;;;;;4937347;29;20285;-52
2022/10/31 01:39:22;;;;;;;71.53;37.50;;;13.00;99.90;;;;;;4935809;29;20194;-52
2022/10/31 01:41:50;;;;;;;62.53;34.77;;;13.00;99.90;;;;;;4934769;29;20213;-52
2022/10/31 01:44:16;;;;;;;66.13;35.60;;;13.00;99.90;;;;;;4934823;29;20245;-52
2022/10/31 01:46:50;;;;;;;67.73;35.60;;;12.90;99.90;;;;;;4936186;29;20438;-51
2022/10/31 01:49:45;;;;;;;73.23;36.37;;;12.90;99.90;;;;;;4935347;29;20217;-52
2022/10/31 01:52:18;;;;;;;58.90;33.90;;;12.90;99.90;;;;;;4935458;29;20898;-52
2022/10/31 01:54:51;;;;;;;67.23;36.80;;;12.90;99.90;;;;;;4935620;29;20534;-52
2022/10/31 01:57:20;;;;;;;77.73;36.00;;;12.90;99.90;;;;;;4936286;29;20923;-52
2022/10/31 01:59:49;;;;;;;73.53;35.33;;;12.90;99.90;;;;;;4933884;29;20426;-47
2022/10/31 02:02:16;;;;;;;73.70;37.00;;;12.90;99.90;;;;;;4933419;29;20921;-47
2022/10/31 02:04:43;;;;;;;74.33;35.50;;;12.80;99.90;;;;;;4935272;29;21499;-47
2022/10/31 02:07:13;;;;;;;67.60;36.27;;;12.90;99.90;;;;;;4936029;29;20800;-47
2022/10/31 02:09:40;;;;;;;77.53;37.13;;;12.90;99.90;;;;;;4935333;29;20451;-46
2022/10/31 02:12:06;;;;;;;70.23;35.50;;;12.90;99.90;;;;;;4934600;29;20556;-47
2022/10/31 02:14:33;;;;;;;75.07;35.67;;;12.90;99.90;;;;;;4932691;29;20480;-47
2022/10/31 02:16:58;;;;;;;67.53;35.53;;;12.90;99.90;;;;;;4933076;29;20533;-47
2022/10/31 02:19:38;;;;;;;70.67;35.80;;;12.90;99.90;;;;;;4935832;29;20535;-47
2022/10/31 02:22:16;;;;;;;76.90;35.07;;;12.90;99.90;;;;;;4934726;29;20429;-47
2022/10/31 02:25:00;;;;;;;63.40;34.70;;;12.90;99.90;;;;;;4919747;29;20453;-47
2022/10/31 02:27:57;;;;;;;58.97;32.20;;;12.80;99.90;;;;;;4934603;29;20450;-47
2022/10/31 02:30:27;;;;;;;68.73;34.90;;;12.70;99.90;;;;;;4917911;29;20856;-47
2022/10/31 02:33:22;;;;;;;80.77;36.20;;;12.70;99.90;;;;;;4931467;29;20469;-47
2022/10/31 02:36:04;;;;;;;63.43;34.07;;;12.70;99.90;;;;;;4919099;29;20435;-47
2022/10/31 02:38:51;;;;;;;83.27;36.80;;;12.70;99.90;;;;;;4936730;29;20414;-47
2022/10/31 02:41:39;;;;;;;85.10;37.30;;;12.80;99.90;;;;;;4929606;29;20446;-47
2022/10/31 02:44:16;;;;;;;76.33;38.13;;;12.80;99.90;;;;;;4922690;29;20438;-47
2022/10/31 02:47:09;;;;;;;82.40;39.27;;;12.80;99.90;;;;;;4934296;29;20505;-47
2022/10/31 02:49:40;;;;;;;77.13;37.63;;;12.90;99.90;;;;;;4932541;29;20454;-48
2022/10/31 02:52:20;;;;;;;82.73;37.70;;;12.90;99.90;;;;;;4934238;29;20469;-47
2022/10/31 02:54:47;;;;;;;83.00;37.60;;;12.90;99.90;;;;;;4932725;29;20442;-48
2022/10/31 02:57:16;;;;;;;83.00;38.90;;;12.90;99.90;;;;;;4931306;29;20561;-47
2022/10/31 02:59:47;;;;;;;87.60;37.87;;;12.90;99.90;;;;;;4932827;29;20446;-47
2022/10/31 03:02:25;;;;;;;78.97;36.63;;;12.90;99.90;;;;;;4925388;29;20446;-47
2022/10/31 03:05:04;;;;;;;66.47;35.93;;;13.00;99.90;;;;;;4930608;29;20457;-47
2022/10/31 03:07:57;;;;;;;82.83;37.70;;;12.90;99.90;;;;;;4929882;29;20772;-53
2022/10/31 03:10:54;;;;;;;89.97;39.43;;;12.90;99.90;;;;;;4929757;29;20437;-53
2022/10/31 03:13:41;;;;;;;78.43;37.93;;;12.90;99.90;;;;;;4931421;29;20478;-53
2022/10/31 03:16:17;;;;;;;82.27;39.53;;;12.90;99.90;;;;;;4932710;29;20446;-53
2022/10/31 03:18:52;;;;;;;84.00;37.17;;;12.90;99.90;;;;;;4933906;29;20438;-53
2022/10/31 03:21:51;;;;;;;75.07;37.30;;;12.90;99.90;;;;;;4932660;29;20785;-53
2022/10/31 03:24:19;;;;;;;81.43;34.97;;;12.90;99.90;;;;;;4934671;29;20442;-53
2022/10/31 03:26:49;;;;;;;82.73;38.30;;;12.90;99.90;;;;;;4933086;29;20441;-53
2022/10/31 03:29:19;;;;;;;83.10;38.00;;;12.80;99.90;;;;;;4934494;29;20952;-53
2022/10/31 03:32:01;;;;;;;87.97;38.90;;;12.90;99.90;;;;;;4932773;29;20445;-53
2022/10/31 03:34:30;;;;;;;91.50;37.77;;;12.90;99.90;;;;;;4932613;29;20929;-52
2022/10/31 03:37:01;;;;;;;81.23;36.83;;;12.90;99.90;;;;;;4931362;29;20749;-53
2022/10/31 03:39:28;;;;;;;90.57;38.53;;;12.90;99.90;;;;;;4931561;29;20532;-53
2022/10/31 03:42:04;;;;;;;88.77;38.17;;;12.80;99.90;;;;;;4929597;29;20438;-53
2022/10/31 03:44:32;;;;;;;90.23;38.67;;;12.90;99.90;;;;;;4932509;29;20445;-47
2022/10/31 03:46:58;;;;;;;87.40;39.20;;;12.90;99.90;;;;;;4934319;29;20477;-47
2022/10/31 03:49:24;;;;;;;86.27;39.50;;;12.90;99.90;;;;;;4932801;29;20462;-47
2022/10/31 03:51:59;;;;;;;89.00;39.90;;;12.90;99.90;;;;;;4927935;29;20447;-47
2022/10/31 03:54:33;;;;;;;96.30;39.00;;;12.90;99.90;;;;;;4932493;29;20189;-47
2022/10/31 03:57:10;;;;;;;90.60;39.00;;;12.90;99.90;;;;;;4934026;29;20803;-47
2022/10/31 03:59:42;;;;;;;95.13;38.03;;;12.90;99.90;;;;;;4930390;29;20442;-47
2022/10/31 04:02:14;;;;;;;91.53;40.03;;;12.90;99.90;;;;;;4929190;29;20452;-47
2022/10/31 04:04:40;;;;;;;88.03;40.50;;;12.90;99.90;;;;;;4927486;29;20446;-47
2022/10/31 04:07:07;;;;;;;98.70;41.33;;;12.90;99.90;;;;;;4930586;29;20456;-47
2022/10/31 04:09:36;;;;;;;105.93;39.40;;;12.90;99.90;;;;;;4931289;29;20202;-47
2022/10/31 04:12:06;;;;;;;86.37;38.97;;;12.90;99.90;;;;;;4933779;29;20572;-47
2022/10/31 04:14:33;;;;;;;91.17;39.30;;;12.80;99.90;;;;;;4933053;29;20442;-47
2022/10/31 04:17:00;;;;;;;105.43;40.93;;;12.80;99.90;;;;;;4932497;29;20470;-47
2022/10/31 04:19:26;;;;;;;93.03;38.73;;;12.80;99.90;;;;;;4931550;29;20438;-47
2022/10/31 04:21:52;;;;;;;96.60;40.60;;;12.80;99.90;;;;;;4930970;29;20438;-47
2022/10/31 04:24:17;;;;;;;91.00;39.97;;;12.80;99.90;;;;;;4932813;29;20205;-51
2022/10/31 04:26:43;;;;;;;94.90;38.27;;;12.80;99.90;;;;;;4930695;29;20190;-47
2022/10/31 04:29:08;;;;;;;94.33;41.50;;;12.80;99.90;;;;;;4931623;29;20191;-47
2022/10/31 04:31:34;;;;;;;90.33;37.70;;;12.80;99.90;;;;;;4928572;29;20700;-47
2022/10/31 04:33:59;;;;;;;98.17;40.93;;;12.80;99.90;;;;;;4933430;29;20604;-47
2022/10/31 04:36:25;;;;;;;103.70;40.67;;;12.80;99.90;;;;;;4928151;29;20285;-47
2022/10/31 04:38:51;;;;;;;88.83;38.37;;;12.80;99.90;;;;;;4927831;29;20641;-47
2022/10/31 04:41:16;;;;;;;93.13;40.50;;;12.90;99.90;;;;;;4931961;29;20194;-47
2022/10/31 04:43:42;;;;;;;101.37;40.40;;;12.90;99.90;;;;;;4930658;29;20305;-47
2022/10/31 04:46:07;;;;;;;105.53;40.53;;;12.90;99.90;;;;;;4929546;29;20198;-47
2022/10/31 04:48:33;;;;;;;100.97;40.50;;;12.90;99.90;;;;;;4933361;29;20254;-47
2022/10/31 04:51:02;;;;;;;105.97;41.00;;;12.90;99.90;;;;;;4930835;29;20319;-47
2022/10/31 04:53:28;;;;;;;107.37;40.77;;;12.90;99.90;;;;;;4931557;29;20254;-47
2022/10/31 04:55:54;;;;;;;99.30;38.77;;;12.90;99.90;;;;;;4931827;29;20474;-54
2022/10/31 04:58:19;;;;;;;90.83;37.43;;;12.90;99.90;;;;;;4933377;29;20212;-54
2022/10/31 05:00:45;;;;;;;87.27;37.73;;;12.80;99.90;;;;;;4930651;29;20190;-54
2022/10/31 05:03:11;;;;;;;96.63;40.73;;;12.90;99.90;;;;;;4930126;29;20207;-54
2022/10/31 05:05:36;;;;;;;95.00;37.73;;;12.90;99.90;;;;;;4930251;29;20266;-54
2022/10/31 05:08:02;;;;;;;92.70;36.77;;;12.90;99.90;;;;;;4927165;29;20198;-54
2022/10/31 05:10:29;;;;;;;90.73;37.17;;;12.80;99.90;;;;;;4933134;29;20211;-50
2022/10/31 05:12:57;;;;;;;92.77;36.90;;;12.80;99.90;;;;;;4930662;29;20241;-47
2022/10/31 05:15:24;;;;;;;107.97;38.10;;;12.80;99.90;;;;;;4927363;29;20450;-47
2022/10/31 05:17:51;;;;;;;91.57;36.90;;;12.80;99.90;;;;;;4932372;29;20442;-47
2022/10/31 05:20:18;;;;;;;88.47;37.07;;;12.80;99.90;;;;;;4931434;29;20473;-47
2022/10/31 05:22:46;;;;;;;104.60;37.30;;;12.80;99.90;;;;;;4929435;29;20450;-47
2022/10/31 05:25:12;;;;;;;99.37;36.70;;;12.70;99.90;;;;;;4929443;29;20446;-47
2022/10/31 05:27:40;;;;;;;91.53;34.87;;;12.80;99.90;;;;;;4931889;29;20803;-47
2022/10/31 05:30:06;;;;;;;107.77;36.33;;;12.80;99.90;;;;;;4932654;29;20452;-47
2022/10/31 05:32:37;;;;;;;92.93;36.10;;;12.80;99.90;;;;;;4928592;29;20470;-47
2022/10/31 05:35:03;;;;;;;106.33;36.20;;;12.70;99.90;;;;;;4932053;29;20452;-47
2022/10/31 05:37:29;;;;;;;93.70;33.77;;;12.70;99.90;;;;;;4931657;29;20532;-47
2022/10/31 05:39:54;;;;;;;123.40;37.73;;;12.80;99.90;;;;;;4930029;29;20439;-47
2022/10/31 05:42:20;;;;;;;123.97;36.47;;;12.80;99.90;;;;;;4930948;29;20198;-47
2022/10/31 05:44:45;;;;;;;106.33;33.47;;;12.80;99.90;;;;;;4930053;29;20206;-47
2022/10/31 05:47:11;;;;;;;92.37;34.93;;;12.80;99.90;;;;;;4919162;29;20249;-47
2022/10/31 05:49:38;;;;;;;102.97;34.60;;;12.80;99.90;;;;;;4932622;29;20234;-47
2022/10/31 05:52:04;;;;;;;96.70;33.40;;;12.80;99.90;;;;;;4924512;29;20526;-54
2022/10/31 05:54:29;;;;;;;102.97;35.63;;;12.80;99.90;;;;;;4932640;29;20190;-53
2022/10/31 05:56:55;;;;;;;106.50;35.13;;;12.80;99.90;;;;;;4930803;29;20191;-54
2022/10/31 05:59:20;;;;;;;101.10;35.30;;;12.80;99.90;;;;;;4932384;29;20193;-54
2022/10/31 06:01:46;;;;;;;98.47;33.27;;;12.80;99.90;;;;;;4930697;29;20206;-54
2022/10/31 06:04:11;;;;;;;100.67;33.60;;;12.80;99.90;;;;;;4933070;29;20963;-54
2022/10/31 06:06:37;;;;;;;129.20;36.43;;;12.80;99.90;;;;;;4927964;29;20277;-53
2022/10/31 06:09:03;;;;;;;116.17;37.80;;;12.80;99.90;;;;;;4928452;29;20206;-54
2022/10/31 06:11:28;;;;;;;95.43;33.43;;;12.80;99.90;;;;;;4928302;29;20664;-47
2022/10/31 06:13:54;;;;;;;104.23;35.70;;;12.80;99.90;;;;;;4932671;29;20308;-47
2022/10/31 06:16:19;;;;;;;101.90;35.10;;;12.90;99.90;;;;;;4928575;29;20281;-48
2022/10/31 06:18:46;;;;;;;89.40;33.63;;;12.90;99.90;;;;;;4932902;29;20629;-47
2022/10/31 06:21:11;;;;;;;109.90;36.53;;;12.90;99.90;;;;;;4931459;29;20210;-47
2022/10/31 06:23:37;;;;;;;93.10;35.20;;;12.90;99.90;;;;;;4933918;29;20825;-47
2022/10/31 06:26:03;;;;;;;105.23;35.83;;;12.90;99.90;;;;;;4928626;29;20665;-46
2022/10/31 06:28:28;;;;;;;86.17;32.00;;;12.90;99.90;;;;;;4935383;29;20597;-47
2022/10/31 06:30:54;;;;;;;81.63;32.40;;;12.90;99.90;;;;;;4935001;29;20225;-47
2022/10/31 06:33:19;;;;;;;91.43;34.00;;;12.90;99.90;;;;;;4933799;29;20707;-47
2022/10/31 06:35:46;;;;;;;84.60;33.40;;;12.90;99.90;;;;;;4932103;29;20190;-47
2022/10/31 06:38:12;;;;;;;109.60;36.87;;;12.90;99.90;;;;;;4933858;29;20226;-47
2022/10/31 06:40:38;;;;;;;107.63;35.70;;;12.90;99.90;;;;;;4934529;29;20433;-47
2022/10/31 06:43:04;;;;;;;85.00;31.23;;;12.90;99.90;;;;;;4923854;29;20443;-47
2022/10/31 06:45:29;;;;;;;86.20;33.90;;;12.90;99.90;;;;;;4933523;29;20269;-47
2022/10/31 06:47:56;;;;;;;104.13;36.13;;;12.90;99.90;;;;;;4932700;29;20240;-47
2022/10/31 06:50:22;;;;;;;79.90;33.30;;;12.90;99.90;;;;;;4935329;29;20633;-53
2022/10/31 06:52:56;;;;;;;97.47;38.37;;;12.90;99.90;;;;;;4934949;29;20481;-54
2022/10/31 06:55:23;;;;;;;94.20;39.30;;;12.90;99.90;;;;;;4934208;29;20445;-54
2022/10/31 06:57:56;;;;;;;104.03;37.90;;;12.90;99.90;;;;;;4931390;29;20442;-53
2022/10/31 07:00:23;;;;;;;86.23;35.70;;;12.80;99.90;;;;;;4930328;29;20457;-53
2022/10/31 07:03:06;;;;;;;82.77;35.60;;;12.90;99.90;;;;;;4931014;29;20516;-53
2022/10/31 07:05:32;;;;;;;75.13;33.80;;;12.80;99.90;;;;;;4932137;29;20955;-53
2022/10/31 07:08:03;;;;;;;88.77;34.63;;;12.80;99.90;;;;;;4933270;29;20443;-54
2022/10/31 07:10:32;;;;;;;85.03;33.50;;;12.80;99.90;;;;;;4934465;29;20539;-53
2022/10/31 07:13:00;;;;;;;92.30;32.33;;;12.70;99.90;;;;;;4930718;29;20829;-53
2022/10/31 07:15:27;;;;;;;104.33;34.03;;;12.70;99.90;;;;;;4934815;29;20779;-54
2022/10/31 07:17:53;;;;;;;116.03;34.37;;;12.60;99.90;;;;;;4934492;29;20478;-54
2022/10/31 07:20:19;;;;;;;93.63;32.40;;;12.60;99.90;;;;;;4934067;29;20543;-53
2022/10/31 07:22:45;;;;;;;84.10;28.53;;;12.60;99.90;;;;;;4930871;29;20527;-54
2022/10/31 07:25:11;;;;;;;59.20;29.43;;;12.60;99.90;;;;;;4934087;29;20434;-54
2022/10/31 07:27:41;;;;;;;157.90;30.20;;;12.60;99.90;;;;;;4930150;29;20198;-53
2022/10/31 07:30:08;;;;;;;73.23;26.80;;;12.50;99.90;;;;;;4932292;29;20451;-54
2022/10/31 07:32:43;;;;;;;52.90;26.63;;;12.50;99.90;;;;;;4927512;29;20517;-54
2022/10/31 07:35:14;;;;;;;93.30;28.50;;;12.50;99.90;;;;;;4930853;29;20465;-54
2022/10/31 07:37:40;;;;;;;77.27;27.93;;;12.50;99.90;;;;;;4932002;29;20477;-53
2022/10/31 07:40:07;;;;;;;65.83;26.50;;;12.50;99.90;;;;;;4933330;29;20474;-47
2022/10/31 07:42:37;;;;;;;78.33;25.60;;;12.50;99.90;;;;;;4931685;29;20452;-49
2022/10/31 07:45:04;;;;;;;62.20;27.03;;;12.50;99.90;;;;;;4932282;29;20441;-47
2022/10/31 07:47:29;;;;;;;61.63;26.77;;;12.50;99.90;;;;;;4933320;29;20485;-47
2022/10/31 07:49:55;;;;;;;78.10;28.90;;;12.50;99.90;;;;;;4932595;29;20789;-47
2022/10/31 07:52:20;;;;;;;59.13;27.67;;;12.50;99.90;;;;;;4928105;29;20241;-47
2022/10/31 07:54:46;;;;;;;75.07;26.20;;;12.50;99.90;;;;;;4933385;29;20179;-47
2022/10/31 07:57:11;;;;;;;59.10;26.70;;;12.50;99.90;;;;;;4933448;29;20190;-47
2022/10/31 07:59:37;;;;;;;63.17;25.60;;;12.50;99.90;;;;;;4934127;29;22309;-47
2022/10/31 08:02:03;;;;;;;66.87;26.60;;;12.60;99.90;;;;;;4931671;29;20245;-48
2022/10/31 08:04:28;;;;;;;69.87;26.40;;;12.60;99.90;;;;;;4932656;29;20186;-47
2022/10/31 08:06:54;;;;;;;50.20;23.30;;;12.60;99.90;;;;;;4931693;29;20187;-47
2022/10/31 08:09:19;;;;;;;49.67;24.43;;;12.60;99.90;;;;;;4930865;29;20234;-47
2022/10/31 08:11:45;;;;;;;70.83;25.17;;;12.70;99.90;;;;;;4925959;29;20262;-47
2022/10/31 08:14:10;;;;;;;63.33;26.00;;;12.70;99.90;;;;;;4930069;29;20224;-47
2022/10/31 08:16:36;;;;;;;66.20;25.03;;;12.80;99.90;;;;;;4932565;29;20241;-53
2022/10/31 08:19:01;;;;;;;37.63;23.03;;;12.90;99.90;;;;;;4935031;29;20182;-53
2022/10/31 08:21:27;;;;;;;52.37;23.50;;;12.90;99.90;;;;;;4929104;29;20182;-53
2022/10/31 08:23:53;;;;;;;45.20;25.17;;;12.90;99.90;;;;;;4924165;29;20205;-53
2022/10/31 08:26:18;;;;;;;41.23;24.67;;;13.00;99.90;;;;;;4922495;29;20186;-53
2022/10/31 08:28:44;;;;;;;45.90;24.20;;;13.00;99.90;;;;;;4931661;29;20202;-53
2022/10/31 08:31:09;;;;;;;51.53;24.60;;;13.10;99.90;;;;;;4927785;29;20245;-53
2022/10/31 08:33:35;;;;;;;52.83;26.97;;;13.20;99.90;;;;;;4923590;29;20233;-53
2022/10/31 08:36:01;;;;;;;59.03;27.03;;;13.30;99.90;;;;;;4929361;29;20202;-54
2022/10/31 08:38:27;;;;;;;43.37;21.83;;;13.50;99.90;;;;;;4930734;29;20206;-54
2022/10/31 08:40:52;;;;;;;43.97;22.73;;;13.60;99.90;;;;;;4924517;29;20194;-53
2022/10/31 08:43:19;;;;;;;43.00;19.93;;;13.60;99.90;;;;;;4930496;29;20191;-53
2022/10/31 08:45:47;;;;;;;39.97;21.47;;;13.70;99.90;;;;;;4929379;29;20194;-53
2022/10/31 08:48:15;;;;;;;44.20;25.00;;;13.80;99.90;;;;;;4931103;29;20596;-53
2022/10/31 08:50:41;;;;;;;47.27;24.30;;;13.80;99.90;;;;;;4923961;29;20849;-53
2022/10/31 08:53:10;;;;;;;43.13;25.10;;;13.70;99.90;;;;;;4925636;29;20469;-51
2022/10/31 08:55:38;;;;;;;37.03;21.20;;;13.60;99.90;;;;;;4918314;29;20446;-54
2022/10/31 08:58:06;;;;;;;46.23;23.37;;;13.60;99.90;;;;;;4926142;29;20796;-52
2022/10/31 09:00:33;;;;;;;40.23;23.07;;;13.60;99.90;;;;;;4927724;29;20952;-52
2022/10/31 09:03:04;;;;;;;46.63;22.00;;;13.60;99.90;;;;;;4928232;29;20473;-53
2022/10/31 09:05:30;;;;;;;42.63;23.10;;;13.60;99.90;;;;;;4924636;29;20437;-53
2022/10/31 09:07:57;;;;;;;46.60;22.97;;;13.70;98.40;;;;;;4929039;29;20445;-53
2022/10/31 09:10:24;;;;;;;39.50;21.20;;;13.70;95.70;;;;;;4921741;29;20504;-52
2022/10/31 09:13:00;;;;;;;38.50;21.63;;;13.80;93.60;;;;;;4927075;29;20596;-51
2022/10/31 09:15:27;;;;;;;41.80;19.47;;;13.80;92.90;;;;;;4924300;29;20974;-52
2022/10/31 09:17:53;;;;;;;35.23;18.20;;;13.90;90.10;;;;;;4929991;29;20444;-52
2022/10/31 09:20:19;;;;;;;38.67;18.57;;;13.90;71.30;;;;;;4926209;29;20489;-52
2022/10/31 09:22:45;;;;;;;39.57;20.93;;;13.90;51.10;;;;;;4926041;29;20442;-52
2022/10/31 09:25:11;;;;;;;43.10;20.50;;;13.90;34.00;;;;;;4923986;29;20479;-52
2022/10/31 09:27:37;;;;;;;34.70;19.73;;;13.90;20.30;;;;;;4928790;29;20874;-52
2022/10/31 09:30:03;;;;;;;35.30;20.60;;;13.90;8.90;;;;;;4928238;29;20209;-52
2022/10/31 09:32:29;;;;;;;43.60;22.47;;;13.90;1.00;;;;;;4925184;29;20214;-50
2022/10/31 09:34:54;;;;;;;43.10;22.20;;;13.90;1.00;;;;;;4924874;29;20443;-52
2022/10/31 09:37:20;;;;;;;44.13;20.93;;;13.90;1.00;;;;;;4929109;29;20198;-51
2022/10/31 09:39:46;;;;;;;41.63;22.03;;;13.90;1.00;;;;;;4928489;29;20201;-52
2022/10/31 09:42:29;;;;;;;43.17;22.23;;;13.90;1.00;;;;;;4924100;29;20194;-48
2022/10/31 09:45:11;;;;;;;43.80;22.00;;;14.00;1.00;;;;;;4927311;29;20237;-48
2022/10/31 09:48:03;;;;;;;32.00;18.70;;;14.00;1.00;;;;;;4928302;29;20892;-48
2022/10/31 09:50:38;;;;;;;35.53;19.50;;;14.10;1.00;;;;;;4930212;29;20454;-48
2022/10/31 09:53:16;;;;;;;56.23;19.63;;;14.10;1.00;;;;;;4929381;29;20556;-48
2022/10/31 09:55:46;;;;;;;41.67;21.70;;;14.00;1.00;;;;;;4933281;29;20485;-47
2022/10/31 09:58:19;;;;;;;43.77;20.17;;;14.00;1.00;;;;;;4922791;29;20460;-47
2022/10/31 10:00:47;;;;;;;45.20;21.10;;;14.10;1.00;;;;;;4929788;29;20438;-48
2022/10/31 10:03:26;;;;;;;47.83;22.50;;;14.10;1.00;;;;;;4929087;29;20461;-48
2022/10/31 10:05:59;;;;;;;38.50;20.63;;;14.20;1.00;;;;;;4929369;29;20437;-48
2022/10/31 10:08:29;;;;;;;38.87;20.63;;;14.20;1.00;;;;;;4929110;29;20453;-51
2022/10/31 10:11:11;;;;;;;45.97;23.87;;;14.20;1.00;;;;;;4927709;29;20508;-51
2022/10/31 10:13:52;;;;;;;37.33;19.33;;;14.20;1.00;;;;;;4930024;29;20479;-51
2022/10/31 10:16:24;;;;;;;39.30;18.47;;;14.10;1.00;;;;;;4928398;29;20528;-50
2022/10/31 10:19:07;;;;;;;39.77;16.77;;;14.20;1.00;;;;;;4931471;29;20537;-50
2022/10/31 10:21:48;;;;;;;38.73;18.80;;;14.20;1.00;;;;;;4929915;29;20446;-50
2022/10/31 10:24:49;;;;;;;44.13;20.47;;;14.20;1.00;;;;;;4931144;29;20459;-51
2022/10/31 10:27:37;;;;;;;34.50;18.23;;;14.20;1.00;;;;;;4931850;29;20450;-51
2022/10/31 10:30:20;;;;;;;40.07;19.77;;;14.10;1.00;;;;;;4934932;29;20489;-49
2022/10/31 10:32:59;;;;;;;41.37;21.77;;;14.10;1.00;;;;;;4930567;29;20481;-50
2022/10/31 10:35:32;;;;;;;45.80;21.37;;;14.10;1.00;;;;;;4929434;29;20438;-50
2022/10/31 10:38:09;;;;;;;49.27;20.10;;;14.10;1.00;;;;;;4931570;29;20454;-50
2022/10/31 10:40:34;;;;;;;31.57;18.13;;;14.20;1.00;;;;;;4932257;29;20456;-46
2022/10/31 10:43:23;;;;;;;35.00;19.90;;;14.20;1.00;;;;;;4927029;29;20442;-49
2022/10/31 10:48:50;;;;;;;42.50;20.73;;;14.30;1.00;;;;;;4931889;29;20512;-49
2022/10/31 10:51:28;;;;;;;37.67;18.93;;;14.30;1.00;;;;;;4924861;29;21539;-49
2022/10/31 10:54:21;;;;;;;35.20;18.50;;;14.30;1.00;;;;;;4926929;29;20481;-49
2022/10/31 10:56:53;;;;;;;37.33;18.03;;;14.30;1.00;;;;;;4928719;29;20497;-49
2022/10/31 10:59:21;;;;;;;35.30;17.40;;;14.30;1.00;;;;;;4928316;29;20531;-49
2022/10/31 11:01:50;;;;;;;37.50;18.50;;;14.30;1.00;;;;;;4932671;29;20450;-49
2022/10/31 11:04:36;;;;;;;38.70;19.27;;;14.50;1.00;;;;;;4931101;29;20454;-48
2022/10/31 11:07:09;;;;;;;37.73;19.83;;;14.50;1.00;;;;;;4928850;29;20458;-50
2022/10/31 11:09:36;;;;;;;37.30;21.87;;;14.50;1.00;;;;;;4932239;29;21003;-47
2022/10/31 11:12:24;;;;;;;40.13;22.93;;;14.50;1.00;;;;;;4925726;29;20963;-46
2022/10/31 11:14:59;;;;;;;43.37;22.30;;;14.60;1.00;;;;;;4924360;29;20859;-46
2022/10/31 11:17:27;;;;;;;39.33;20.30;;;14.60;1.00;;;;;;4933444;29;20856;-47
2022/10/31 11:20:11;;;;;;;34.37;19.00;;;14.60;99.90;;;;;;4932037;29;20450;-47
2022/10/31 11:22:36;;;;;;;35.37;19.17;;;14.70;99.90;;;;;;4930625;29;20454;-47
2022/10/31 11:25:24;;;;;;;33.83;18.07;;;14.80;99.90;;;;;;4929245;29;20979;-47
2022/10/31 11:28:09;;;;;;;36.90;17.40;;;14.90;99.90;;;;;;4923898;29;20194;-47
2022/10/31 11:31:08;;;;;;;37.67;19.70;;;15.00;99.90;;;;;;4919509;29;20956;-47
2022/10/31 11:33:46;;;;;;;32.23;17.63;;;15.10;99.90;;;;;;4903544;29;21043;-48
2022/10/31 11:36:20;;;;;;;28.37;17.93;;;15.10;99.90;;;;;;4913174;29;20462;-48
2022/10/31 11:38:46;;;;;;;32.57;19.40;;;15.30;99.90;;;;;;4912220;29;21062;-48
2022/10/31 11:41:16;;;;;;;35.40;21.10;;;15.40;99.90;;;;;;4915360;29;20454;-48
2022/10/31 11:44:09;;;;;;;43.07;20.90;;;15.40;38.90;;;;;;4913489;29;21128;-48
2022/10/31 11:46:54;;;;;;;42.10;23.07;;;15.50;1.00;;;;;;4920832;29;22045;-48
2022/10/31 11:49:29;;;;;;;56.53;32.50;;;15.40;1.00;;;;;;4914950;29;20988;-48
2022/10/31 11:51:57;;;;;;;43.07;26.00;;;15.30;1.00;;;;;;4914068;29;20442;-48
2022/10/31 11:54:32;;;;;;;45.90;30.00;;;15.30;99.90;;;;;;4912621;29;20474;-48
2022/10/31 11:56:58;;;;;;;47.87;29.03;;;15.10;99.90;;;;;;4913798;29;20799;-48
2022/10/31 11:59:29;;;;;;;51.63;30.27;;;15.10;1.00;;;;;;4913175;29;20441;-48
2022/10/31 12:01:58;;;;;;;49.57;31.30;;;15.10;1.00;;;;;;4912826;29;20198;-48
2022/10/31 12:04:46;;;;;;;51.47;30.33;;;15.10;1.00;;;;;;4913306;29;20434;-47
2022/10/31 12:07:12;;;;;;;56.90;33.53;;;15.00;1.00;;;;;;4925626;29;20836;-48
2022/10/31 12:09:38;;;;;;;57.40;33.63;;;15.00;1.00;;;;;;4931451;29;20446;-48
2022/10/31 12:12:35;;;;;;;61.80;33.53;;;15.00;1.00;;;;;;4928270;29;20577;-48
2022/10/31 12:15:26;;;;;;;54.53;29.93;;;15.00;1.00;;;;;;4921495;29;20531;-48
2022/10/31 12:18:17;;;;;;;56.57;30.20;;;15.00;1.00;;;;;;4929460;29;20796;-48
2022/10/31 12:21:13;;;;;;;46.50;29.33;;;15.10;1.00;;;;;;4925479;29;20435;-48
2022/10/31 12:23:48;;;;;;;50.03;30.73;;;15.20;1.00;;;;;;4929390;29;20781;-47
2022/10/31 12:26:18;;;;;;;51.00;29.90;;;15.10;1.00;;;;;;4931299;29;20468;-45
2022/10/31 12:29:02;;;;;;;53.50;31.97;;;15.10;99.90;;;;;;4931441;29;21073;-47
2022/10/31 12:31:46;;;;;;;44.97;27.53;;;15.10;1.00;;;;;;4925047;29;20452;-46
2022/10/31 12:34:30;;;;;;;44.63;27.30;;;15.10;99.90;;;;;;4930529;29;20492;-46
2022/10/31 12:37:20;;;;;;;42.17;27.23;;;15.10;99.90;;;;;;4928865;29;20457;-46
2022/10/31 12:40:31;;;;;;;44.93;28.40;;;15.10;99.90;;;;;;4927129;29;23950;-47
2022/10/31 12:43:07;;;;;;;50.20;29.73;;;14.90;99.90;;;;;;4927804;29;20442;-45
2022/10/31 12:45:55;;;;;;;45.47;28.60;;;14.90;99.90;;;;;;4929082;29;20916;-45
2022/10/31 12:48:30;;;;;;;45.47;26.57;;;14.80;99.90;;;;;;4926349;29;20524;-46
2022/10/31 12:51:29;;;;;;;50.70;26.17;;;14.80;99.90;;;;;;4928533;29;20446;-46